Bunnell, Florida
Current Conditions -  °F | °C
As of 9:06 AM on Wednesday 26 Nov 2014 (Local Time) from KDAB Reporting Station
Light Rain Light Rain  
Wind Chill: 54°   Ceiling: 800
Heat Index: 54°   Visibility: 6mi
Dew Point: 52°   Wind: 10mph
Humidity: 93%   Direction: 310°NW
Pressure: 30.06"   Gusts: NA
Location:  29.47°N, 81.26°W
Report Text: KDAB 261406Z 31009KT 6SM -RA BR BKN008 BKN050 OVC065 12/11 A3006 RMK AO2 P0002 T01220111
Loading
Personal Weather Stations






























Interactive Weather Map New forecast layout! Learn more

10-Day Weather Forecast

Advertisements
Track Severe Weather on mobile